Albia, Iowa
Current Conditions -  °F | °C
As of 9:53 AM on Wednesday 28 Jan 2015 (Local Time) from KOTM Reporting Station
Clear Clear  
Wind Chill: -4°   Ceiling: Unl
Heat Index:   Visibility: 8mi
Dew Point: -2°   Wind: 17mph
Humidity: 76%   Direction: 150°SSE
Pressure: 30.01"   Gusts: 24mph
Location:  41.03°N, 92.81°W
Report Text: KOTM 281553Z AUTO 15015G21KT 8SM CLR 02/M02 A3001 RMK AO2 PK WND 15026/1539 SLP172 T00171022
Loading
Personal Weather Stations






























Interactive Weather Map New forecast layout! Learn more

10-Day Weather Forecast

Advertisements
Track Severe Weather on mobile